Time;durP1;ratioP1;P1;durP2;ratioP2;P2;SDS_P1;SDS_P2;PMS_P1;PMS_P2;Temp;Humidity;BMP_temperature;BMP_pressure;BME280_temperature;BME280_humidity;BME280_pressure;Samples;Min_cycle;Max_cycle;Signal;HPM_P1;HPM_P2
2021/01/07 00:01:26;;;;;;;28.25;20.52;;;;;;;2.53;85.65;100567.56;1776530;80;21199;-53
2021/01/07 00:03:54;;;;;;;26.65;18.52;;;;;;;2.49;85.70;100569.08;1776472;80;21608;-53
2021/01/07 00:06:21;;;;;;;28.23;18.95;;;;;;;2.47;85.93;100568.44;1776734;80;21002;-53
2021/01/07 00:08:51;;;;;;;27.77;18.67;;;;;;;2.42;86.04;100582.13;1776640;80;21672;-53
2021/01/07 00:11:20;;;;;;;24.55;15.65;;;;;;;2.34;86.22;100589.14;1776745;80;21041;-53
2021/01/07 00:13:48;;;;;;;25.48;16.82;;;;;;;2.22;86.49;100586.80;1776504;80;22340;-53
2021/01/07 00:16:15;;;;;;;21.42;14.60;;;;;;;2.16;86.96;100586.28;1776590;80;21017;-53
2021/01/07 00:18:47;;;;;;;24.00;15.70;;;;;;;2.13;87.28;100587.56;1776388;80;21046;-53
2021/01/07 00:21:15;;;;;;;27.45;17.40;;;;;;;2.12;87.55;100568.81;1776584;80;20976;-53
2021/01/07 00:23:43;;;;;;;25.50;15.68;;;;;;;2.14;87.66;100566.17;1776515;80;21029;-53
2021/01/07 00:26:10;;;;;;;25.17;15.83;;;;;;;2.15;87.79;100568.38;1776359;80;21465;-53
2021/01/07 00:28:38;;;;;;;23.47;15.15;;;;;;;2.12;87.83;100574.23;1776815;80;20970;-53
2021/01/07 00:31:05;;;;;;;20.60;14.35;;;;;;;2.08;87.92;100571.92;1776496;80;21005;-53
2021/01/07 00:33:33;;;;;;;24.45;15.03;;;;;;;2.10;88.14;100578.52;1776722;80;21046;-53
2021/01/07 00:36:01;;;;;;;24.95;15.43;;;;;;;2.14;88.24;100569.42;1776630;80;21022;-53
2021/01/07 00:38:28;;;;;;;26.02;13.70;;;;;;;2.17;88.39;100558.14;1776571;80;21336;-53
2021/01/07 00:40:56;;;;;;;26.45;16.62;;;;;;;2.22;88.32;100565.13;1777055;80;20994;-53
2021/01/07 00:43:23;;;;;;;27.52;17.75;;;;;;;2.21;88.22;100574.30;1783832;80;21516;-53
2021/01/07 00:45:52;;;;;;;22.82;14.87;;;;;;;2.25;88.34;100572.82;1783706;80;21018;-53
2021/01/07 00:48:20;;;;;;;25.90;16.52;;;;;;;2.30;88.35;100574.38;1783811;80;20966;-53
2021/01/07 00:50:51;;;;;;;24.35;15.40;;;;;;;2.32;88.26;100583.64;1783739;80;21040;-53
2021/01/07 00:53:18;;;;;;;26.95;16.37;;;;;;;2.32;88.26;100568.73;1783679;80;21069;-53
2021/01/07 00:55:46;;;;;;;27.35;16.32;;;;;;;2.32;88.38;100577.69;1783788;80;21006;-53
2021/01/07 00:58:14;;;;;;;29.70;18.25;;;;;;;2.39;88.47;100562.76;1783632;79;20997;-53
2021/01/07 01:00:41;;;;;;;33.48;19.73;;;;;;;2.44;88.49;100556.69;1783861;80;21025;-53
2021/01/07 01:03:10;;;;;;;33.08;20.52;;;;;;;2.44;88.25;100545.84;1783781;80;23606;-53
2021/01/07 01:05:39;;;;;;;29.18;16.80;;;;;;;2.41;88.30;100549.80;1783775;80;21005;-53
2021/01/07 01:08:07;;;;;;;30.82;17.70;;;;;;;2.37;88.25;100552.14;1783792;80;20998;-53
2021/01/07 01:10:35;;;;;;;30.88;18.70;;;;;;;2.28;88.44;100553.41;1783845;80;21540;-53
2021/01/07 01:13:02;;;;;;;34.58;20.80;;;;;;;2.29;88.80;100551.52;1783783;80;21005;-53
2021/01/07 01:15:33;;;;;;;33.08;21.05;;;;;;;2.35;89.08;100544.72;1783591;80;21009;-53
2021/01/07 01:18:01;;;;;;;32.03;18.52;;;;;;;2.44;89.01;100543.95;1783839;80;20997;-53
2021/01/07 01:20:29;;;;;;;33.13;20.60;;;;;;;2.47;88.95;100540.80;1783576;80;21061;-53
2021/01/07 01:22:57;;;;;;;32.30;18.87;;;;;;;2.47;88.88;100533.20;1783671;80;21017;-53
2021/01/07 01:25:24;;;;;;;35.23;19.90;;;;;;;2.52;89.04;100530.14;1783799;80;21264;-53
2021/01/07 01:27:51;;;;;;;39.50;22.85;;;;;;;2.56;88.89;100536.80;1783883;80;22286;-53
2021/01/07 01:30:20;;;;;;;35.10;22.48;;;;;;;2.56;88.82;100528.66;1783867;80;21032;-53
2021/01/07 01:32:48;;;;;;;37.60;22.00;;;;;;;2.57;88.78;100520.84;1783879;80;21056;-53
2021/01/07 01:35:16;;;;;;;41.25;23.98;;;;;;;2.61;88.83;100516.33;1783707;80;20969;-53
2021/01/07 01:37:44;;;;;;;31.73;20.30;;;;;;;2.61;88.75;100517.16;1783686;80;21659;-53
2021/01/07 01:40:14;;;;;;;42.35;24.37;;;;;;;2.64;88.78;100509.93;1783795;80;21195;-53
2021/01/07 01:42:41;;;;;;;32.15;20.65;;;;;;;2.65;88.72;100509.42;1780877;80;21564;-53
2021/01/07 01:45:10;;;;;;;36.88;24.05;;;;;;;2.65;88.74;100506.17;1779258;80;21046;-53
2021/01/07 01:47:38;;;;;;;36.13;21.62;;;;;;;2.64;88.63;100496.91;1779434;80;20998;-53
2021/01/07 01:50:09;;;;;;;36.45;23.00;;;;;;;2.60;88.50;100496.50;1779298;80;21017;-53
2021/01/07 01:52:36;;;;;;;35.63;22.55;;;;;;;2.56;88.57;100491.23;1779530;80;21362;-53
2021/01/07 01:55:06;;;;;;;39.10;25.23;;;;;;;2.52;88.63;100487.30;1779337;80;21033;-53
2021/01/07 01:57:33;;;;;;;36.15;24.85;;;;;;;2.54;88.81;100489.25;1779358;79;20978;-53
2021/01/07 02:00:01;;;;;;;40.08;23.67;;;;;;;2.57;88.73;100488.30;1779162;80;20990;-53
2021/01/07 02:02:31;;;;;;;31.73;20.50;;;;;;;2.56;88.81;100473.61;1779480;80;21017;-53
2021/01/07 02:05:00;;;;;;;37.50;23.47;;;;;;;2.58;88.76;100470.95;1779515;80;21272;-53
2021/01/07 02:07:27;;;;;;;33.65;20.95;;;;;;;2.61;88.74;100466.98;1779443;80;20998;-53
2021/01/07 02:09:55;;;;;;;37.50;21.42;;;;;;;2.63;88.65;100460.83;1779605;80;20970;-53
2021/01/07 02:12:23;;;;;;;39.88;24.95;;;;;;;2.63;88.46;100449.98;1779528;80;20993;-53
2021/01/07 02:14:50;;;;;;;37.55;23.65;;;;;;;2.63;88.48;100454.05;1779423;80;21022;-53
2021/01/07 02:17:18;;;;;;;37.93;25.65;;;;;;;2.63;88.34;100440.49;1779520;80;21197;-53
2021/01/07 02:19:45;;;;;;;42.48;25.95;;;;;;;2.65;88.38;100437.02;1760921;81;22050;-53
2021/01/07 02:22:14;;;;;;;50.35;30.52;;;;;;;2.71;88.50;100430.70;1779439;80;21046;-53
2021/01/07 02:24:42;;;;;;;43.50;24.57;;;;;;;2.82;88.37;100436.48;1779382;80;21034;-53
2021/01/07 02:27:10;;;;;;;46.80;24.60;;;;;;;2.85;88.15;100426.54;1760831;81;21087;-53
2021/01/07 02:29:40;;;;;;;59.13;26.00;;;;;;;2.84;87.99;100420.27;1748771;81;21034;-54
2021/01/07 02:32:09;;;;;;;54.67;25.43;;;;;;;2.83;87.81;100421.34;1779415;80;21076;-53
2021/01/07 02:34:37;;;;;;;47.17;27.37;;;;;;;2.80;87.64;100415.01;1779609;80;20966;-53
2021/01/07 02:37:05;;;;;;;40.15;24.82;;;;;;;2.76;87.57;100417.86;1779401;80;21663;-53
2021/01/07 02:39:33;;;;;;;43.48;24.65;;;;;;;2.73;87.72;100415.05;1779287;80;21102;-59
2021/01/07 02:42:01;;;;;;;44.95;23.83;;;;;;;2.71;87.64;100409.00;1779396;80;21197;-53
2021/01/07 02:44:28;;;;;;;37.78;24.35;;;;;;;2.69;87.74;100408.95;1779469;80;21014;-53
2021/01/07 02:46:55;;;;;;;49.73;26.73;;;;;;;2.71;87.87;100406.83;1779318;80;21002;-53
2021/01/07 02:49:23;;;;;;;39.55;25.70;;;;;;;2.73;87.75;100402.00;1779416;80;21013;-53
2021/01/07 02:51:50;;;;;;;41.83;24.45;;;;;;;2.73;87.83;100390.64;1779486;80;20978;-53
2021/01/07 02:54:18;;;;;;;47.70;25.85;;;;;;;2.71;87.62;100395.44;1779601;80;21142;-53
2021/01/07 02:56:45;;;;;;;39.80;23.42;;;;;;;2.66;87.59;100392.58;1779366;79;21033;-53
2021/01/07 02:59:13;;;;;;;50.03;25.70;;;;;;;2.66;87.67;100389.02;1779587;80;20938;-53
2021/01/07 03:01:40;;;;;;;49.03;24.63;;;;;;;2.63;87.61;100388.12;1779469;80;21045;-53
2021/01/07 03:04:07;;;;;;;50.43;24.23;;;;;;;2.61;87.85;100384.27;1779574;80;21009;-53
2021/01/07 03:06:34;;;;;;;42.10;24.72;;;;;;;2.63;87.76;100384.89;1779629;80;22280;-53
2021/01/07 03:09:03;;;;;;;39.45;25.35;;;;;;;2.64;87.79;100375.69;1779453;80;21022;-53
2021/01/07 03:11:30;;;;;;;37.17;23.18;;;;;;;2.65;87.76;100375.18;1779462;80;21021;-53
2021/01/07 03:13:57;;;;;;;35.63;21.80;;;;;;;2.68;87.64;100371.48;1779430;80;21009;-53
2021/01/07 03:16:25;;;;;;;42.30;24.70;;;;;;;2.69;87.71;100371.80;1760865;81;20993;-53
2021/01/07 03:18:52;;;;;;;39.40;24.95;;;;;;;2.69;87.53;100369.63;1779345;80;23674;-53
2021/01/07 03:21:20;;;;;;;38.85;23.77;;;;;;;2.68;87.59;100367.41;1779251;80;21045;-53
2021/01/07 03:23:47;;;;;;;33.15;22.20;;;;;;;2.69;87.55;100356.88;1779593;80;20997;-53
2021/01/07 03:26:16;;;;;;;39.00;25.10;;;;;;;2.72;87.42;100351.54;1779294;80;20982;-53
2021/01/07 03:28:44;;;;;;;34.23;22.55;;;;;;;2.71;87.33;100347.98;1779426;80;20970;-53
2021/01/07 03:31:12;;;;;;;30.85;19.87;;;;;;;2.68;87.33;100338.94;1779435;80;21266;-53
2021/01/07 03:33:40;;;;;;;29.55;20.95;;;;;;;2.66;87.40;100335.63;1779347;80;21057;-53
2021/01/07 03:36:07;;;;;;;31.90;22.17;;;;;;;2.67;87.47;100335.09;1779478;80;21005;-53
2021/01/07 03:38:35;;;;;;;32.93;22.82;;;;;;;2.69;87.51;100331.65;1779499;80;21033;-53
2021/01/07 03:41:02;;;;;;;33.20;21.90;;;;;;;2.67;87.30;100338.66;1779367;80;21042;-53
2021/01/07 03:43:30;;;;;;;29.92;21.05;;;;;;;2.63;87.31;100340.16;1779406;80;21716;-53
2021/01/07 03:45:57;;;;;;;29.82;19.40;;;;;;;2.61;87.34;100338.17;1779517;80;20978;-53
2021/01/07 03:48:25;;;;;;;34.73;23.02;;;;;;;2.59;87.47;100334.87;1779512;80;21418;-53
2021/01/07 03:50:52;;;;;;;36.05;22.67;;;;;;;2.58;87.48;100333.20;1779256;80;20990;-53
2021/01/07 03:53:19;;;;;;;36.15;24.67;;;;;;;2.59;87.64;100327.55;1779531;80;20998;-53
2021/01/07 03:55:47;;;;;;;30.00;20.43;;;;;;;2.61;87.65;100317.83;1779362;80;21194;-53
2021/01/07 03:58:14;;;;;;;33.33;24.12;;;;;;;2.66;87.62;100319.86;1779275;79;20986;-53
2021/01/07 04:00:42;;;;;;;31.07;22.70;;;;;;;2.64;87.42;100317.38;1779438;80;21042;-53
2021/01/07 04:03:09;;;;;;;27.65;19.67;;;;;;;2.66;87.56;100313.94;1779363;80;21046;-53
2021/01/07 04:05:37;;;;;;;31.35;21.50;;;;;;;2.68;87.54;100309.11;1779596;80;20974;-53
2021/01/07 04:08:05;;;;;;;33.95;23.38;;;;;;;2.68;87.52;100309.11;1779521;80;21374;-53
2021/01/07 04:10:33;;;;;;;33.00;22.27;;;;;;;2.69;87.45;100300.46;1779484;80;21061;-53
2021/01/07 04:13:01;;;;;;;33.18;22.67;;;;;;;2.73;87.50;100309.27;1779404;80;21010;-53
2021/01/07 04:15:28;;;;;;;31.33;22.30;;;;;;;2.74;87.38;100305.52;1779505;80;20985;-53
2021/01/07 04:17:55;;;;;;;33.15;22.65;;;;;;;2.76;87.35;100303.39;1779543;80;21021;-53
2021/01/07 04:20:23;;;;;;;34.18;23.87;;;;;;;2.76;87.23;100306.11;1779278;80;21088;-53
2021/01/07 04:22:51;;;;;;;32.48;21.50;;;;;;;2.72;87.06;100300.83;1779392;80;21049;-53
2021/01/07 04:25:18;;;;;;;37.58;23.47;;;;;;;2.69;87.23;100290.43;1779419;80;21620;-53
2021/01/07 04:27:46;;;;;;;40.90;27.35;;;;;;;2.72;87.35;100306.78;1779492;80;21049;-53
2021/01/07 04:30:16;;;;;;;40.73;26.27;;;;;;;2.70;87.27;100300.73;1779542;80;21034;-53
2021/01/07 04:32:43;;;;;;;39.13;26.30;;;;;;;2.69;87.30;100303.99;1779477;80;22252;-53
2021/01/07 04:35:12;;;;;;;39.40;26.30;;;;;;;2.69;87.27;100302.63;1779300;80;21017;-53
2021/01/07 04:37:39;;;;;;;37.78;26.23;;;;;;;2.67;87.23;100306.11;1779343;80;21033;-54
2021/01/07 04:40:09;;;;;;;38.00;25.60;;;;;;;2.57;87.27;100305.77;1779527;80;21018;-53
2021/01/07 04:42:36;;;;;;;30.02;20.75;;;;;;;2.53;87.52;100307.27;1778920;80;21167;-52
2021/01/07 04:45:06;;;;;;;35.05;24.05;;;;;;;2.53;87.71;100310.83;1752704;80;21244;-53
2021/01/07 04:47:36;;;;;;;39.48;27.45;;;;;;;2.52;87.76;100311.87;1776682;80;21069;-52
2021/01/07 04:50:05;;;;;;;39.95;26.15;;;;;;;2.54;87.94;100311.14;1776613;80;20986;-54
2021/01/07 04:52:36;;;;;;;38.10;24.10;;;;;;;2.55;87.91;100305.18;1776748;80;21519;-53
2021/01/07 04:55:07;;;;;;;35.28;25.57;;;;;;;2.55;88.00;100302.47;1752778;80;20978;-53
2021/01/07 04:57:35;;;;;;;34.63;25.75;;;;;;;2.54;88.02;100296.73;1776607;79;22190;-53
2021/01/07 05:00:09;;;;;;;38.67;25.75;;;;;;;2.54;88.21;100292.16;1776471;80;21136;-52
2021/01/07 05:02:37;;;;;;;29.90;20.75;;;;;;;2.60;88.28;100291.76;1776581;80;21034;-53
2021/01/07 05:05:07;;;;;;;32.15;22.32;;;;;;;2.60;88.12;100289.05;1776498;80;21000;-54
2021/01/07 05:07:38;;;;;;;36.80;23.87;;;;;;;2.58;88.10;100283.03;1776722;80;21029;-53
2021/01/07 05:10:10;;;;;;;32.13;20.57;;;;;;;2.58;88.19;100281.67;1776634;80;21202;-54
2021/01/07 05:12:39;;;;;;;33.70;22.35;;;;;;;2.54;88.24;100275.04;1776530;80;21029;-52
2021/01/07 05:15:08;;;;;;;34.98;23.42;;;;;;;2.55;88.38;100283.48;1776696;80;20947;-53
2021/01/07 05:17:36;;;;;;;36.15;23.50;;;;;;;2.57;88.50;100269.16;1776555;80;21058;-53
2021/01/07 05:20:14;;;;;;;34.15;21.65;;;;;;;2.61;88.53;100266.31;1776688;80;21034;-53
2021/01/07 05:22:42;;;;;;;26.20;18.00;;;;;;;2.62;88.40;100266.63;1776715;80;22127;-53
2021/01/07 05:25:14;;;;;;;32.67;20.75;;;;;;;2.58;88.49;100262.70;1776381;80;21068;-53
2021/01/07 05:27:42;;;;;;;35.15;23.05;;;;;;;2.58;88.60;100251.31;1776683;80;20974;-54
2021/01/07 05:30:11;;;;;;;40.60;22.85;;;;;;;2.58;88.68;100249.14;1776577;80;21080;-53
2021/01/07 05:32:41;;;;;;;36.90;25.45;;;;;;;2.59;88.79;100239.95;1776649;80;20998;-53
2021/01/07 05:35:11;;;;;;;38.00;24.63;;;;;;;2.59;88.86;100244.84;1776730;80;21183;-53
2021/01/07 05:37:39;;;;;;;39.60;27.15;;;;;;;2.62;88.85;100247.64;1776495;80;20993;-53
2021/01/07 05:40:08;;;;;;;45.23;30.80;;;;;;;2.65;89.03;100245.83;1776610;80;21014;-53
2021/01/07 05:42:42;;;;;;;44.73;29.70;;;;;;;2.70;88.99;100235.14;1776532;80;21006;-53
2021/01/07 05:45:16;;;;;;;47.67;30.45;;;;;;;2.74;88.91;100242.28;1776694;80;21615;-53
2021/01/07 05:47:48;;;;;;;40.95;26.37;;;;;;;2.73;88.92;100227.91;1776649;80;21380;-53
2021/01/07 05:50:15;;;;;;;30.70;21.62;;;;;;;2.74;88.96;100226.86;1775973;80;21057;-53
2021/01/07 05:52:45;;;;;;;32.95;22.55;;;;;;;2.75;88.91;100228.49;1704062;80;21053;-53
2021/01/07 05:55:14;;;;;;;31.45;21.93;;;;;;;2.74;88.95;100237.70;1776716;80;21615;-53
2021/01/07 05:57:43;;;;;;;32.25;20.60;;;;;;;2.74;89.00;100236.35;1776730;79;21025;-53
2021/01/07 06:00:16;;;;;;;31.35;21.00;;;;;;;2.74;89.13;100238.22;1776715;80;21201;-53
2021/01/07 06:02:44;;;;;;;28.57;19.37;;;;;;;2.72;89.22;100233.02;1776592;80;21030;-53
2021/01/07 06:05:14;;;;;;;25.68;18.23;;;;;;;2.78;89.45;100233.18;1776589;80;21029;-53
2021/01/07 06:07:41;;;;;;;33.60;18.90;;;;;;;2.78;89.31;100231.28;1776550;80;21022;-53
2021/01/07 06:10:11;;;;;;;27.50;17.23;;;;;;;2.80;89.44;100229.70;1776615;80;20931;-53
2021/01/07 06:12:38;;;;;;;24.07;17.07;;;;;;;2.82;89.45;100237.10;1776658;80;21195;-53
2021/01/07 06:15:11;;;;;;;24.12;16.97;;;;;;;2.81;89.39;100227.30;1776322;80;21489;-54
2021/01/07 06:17:41;;;;;;;22.87;15.90;;;;;;;2.83;89.48;100233.31;1776739;80;20990;-54
2021/01/07 06:20:20;;;;;;;25.20;17.35;;;;;;;2.84;89.51;100233.63;1752881;80;21178;-54
2021/01/07 06:22:53;;;;;;;30.17;18.27;;;;;;;2.84;89.55;100234.44;1776757;80;20966;-53
2021/01/07 06:25:23;;;;;;;26.62;18.48;;;;;;;2.84;89.56;100233.63;1776650;80;21267;-53
2021/01/07 06:27:51;;;;;;;28.75;18.30;;;;;;;2.81;89.61;100232.19;1776595;80;21009;-53
2021/01/07 06:30:24;;;;;;;33.00;21.77;;;;;;;2.80;89.68;100231.05;1776852;80;20942;-53
2021/01/07 06:33:04;;;;;;;33.50;21.50;;;;;;;2.80;89.82;100222.92;1776612;80;21014;-53
2021/01/07 06:35:42;;;;;;;39.53;22.70;;;;;;;2.84;89.93;100235.80;1776710;80;21010;-53
2021/01/07 06:38:22;;;;;;;36.80;21.45;;;;;;;2.88;89.91;100238.90;1776543;80;21378;-54
2021/01/07 06:40:50;;;;;;;43.78;25.95;;;;;;;2.85;89.91;100241.53;1776466;80;21073;-53
2021/01/07 06:43:18;;;;;;;54.98;31.60;;;;;;;2.90;90.07;100238.13;1776529;80;21050;-52
2021/01/07 06:45:51;;;;;;;60.75;31.42;;;;;;;2.93;90.03;100231.73;1776608;80;21220;-53
2021/01/07 06:48:34;;;;;;;59.75;32.65;;;;;;;2.98;90.02;100226.98;1776796;80;21030;-53
2021/01/07 06:51:04;;;;;;;58.28;31.33;;;;;;;2.99;89.98;100224.57;1776701;80;21372;-52
2021/01/07 06:53:37;;;;;;;56.18;30.97;;;;;;;3.03;90.00;100224.92;1728962;80;21010;-52
2021/01/07 06:56:17;;;;;;;76.28;37.08;;;;;;;3.07;89.92;100223.42;1776618;80;21001;-52
2021/01/07 06:58:46;;;;;;;69.62;36.35;;;;;;;3.07;89.81;100217.48;1776758;79;20970;-53
2021/01/07 07:01:17;;;;;;;72.55;34.98;;;;;;;3.15;89.89;100225.00;1776752;80;20998;-53
2021/01/07 07:03:52;;;;;;;77.60;36.68;;;;;;;3.13;89.70;100218.45;1776423;80;21467;-53
2021/01/07 07:06:23;;;;;;;85.60;39.55;;;;;;;3.10;89.55;100217.02;1776914;80;21049;-53
2021/01/07 07:08:50;;;;;;;70.80;33.38;;;;;;;3.08;89.66;100219.11;1753161;80;21009;-53
2021/01/07 07:11:31;;;;;;;102.82;46.55;;;;;;;3.11;89.80;100221.91;1776648;80;21582;-53
2021/01/07 07:14:01;;;;;;;86.97;37.63;;;;;;;3.10;89.81;100218.38;1769586;80;20998;-53
2021/01/07 07:16:34;;;;;;;93.12;40.35;;;;;;;3.11;89.82;100219.19;1776817;80;21375;-53
2021/01/07 07:19:01;;;;;;;90.53;39.80;;;;;;;3.10;89.89;100212.95;1776665;80;21624;-53
2021/01/07 07:21:29;;;;;;;90.00;41.25;;;;;;;3.13;89.92;100206.23;1776778;80;21026;-53
2021/01/07 07:24:02;;;;;;;90.80;41.48;;;;;;;3.11;89.88;100199.69;1776672;80;20970;-53
2021/01/07 07:26:39;;;;;;;102.25;43.05;;;;;;;3.13;89.86;100198.61;1774409;80;21077;-53
2021/01/07 07:29:09;;;;;;;80.85;34.75;;;;;;;3.09;89.85;100188.22;1776846;80;22223;-52
2021/01/07 07:31:43;;;;;;;85.05;38.88;;;;;;;3.06;89.99;100191.39;1776743;80;21010;-53
2021/01/07 07:34:12;;;;;;;78.42;37.08;;;;;;;3.05;90.05;100191.08;1776880;80;21565;-53
2021/01/07 07:36:40;;;;;;;82.92;41.05;;;;;;;3.06;90.19;100177.01;1776782;80;21044;-53
2021/01/07 07:39:08;;;;;;;77.85;33.65;;;;;;;3.08;90.20;100178.95;1752820;80;21062;-53
2021/01/07 07:41:40;;;;;;;68.45;32.85;;;;;;;3.08;90.24;100172.98;1776766;80;21245;-54
2021/01/07 07:44:07;;;;;;;83.10;39.75;;;;;;;3.09;90.40;100163.80;1776475;80;21030;-54
2021/01/07 07:46:36;;;;;;;83.30;42.27;;;;;;;3.16;90.32;100160.14;1776755;80;21454;-53
2021/01/07 07:49:05;;;;;;;85.32;40.90;;;;;;;3.17;90.22;100156.38;1776624;80;21140;-54
2021/01/07 07:51:33;;;;;;;65.17;32.75;;;;;;;3.18;90.19;100158.05;1776685;80;21001;-54
2021/01/07 07:54:09;;;;;;;77.60;40.92;;;;;;;3.20;90.25;100152.69;1776768;80;21286;-53
2021/01/07 07:56:38;;;;;;;62.30;33.50;;;;;;;3.19;90.18;100150.21;1776460;80;21065;-55
2021/01/07 07:59:10;;;;;;;66.10;36.42;;;;;;;3.20;90.19;100139.12;1776759;80;20982;-53
2021/01/07 08:01:46;;;;;;;73.87;38.25;;;;;;;3.19;90.15;100148.85;1776638;80;21081;-54
2021/01/07 08:04:18;;;;;;;74.42;35.48;;;;;;;3.22;90.29;100137.53;1776248;80;20942;-53
2021/01/07 08:06:47;;;;;;;57.78;32.73;;;;;;;3.23;90.14;100137.80;1776704;80;22179;-54
2021/01/07 08:09:19;;;;;;;54.33;31.82;;;;;;;3.21;90.12;100131.25;1776690;80;20989;-54
2021/01/07 08:11:53;;;;;;;65.12;36.15;;;;;;;3.25;90.31;100122.95;1776611;80;21026;-54
2021/01/07 08:14:25;;;;;;;64.60;38.23;;;;;;;3.31;90.18;100133.41;1776647;80;21030;-56
2021/01/07 08:16:58;;;;;;;55.40;31.97;;;;;;;3.31;89.95;100125.80;1776726;80;21180;-54
2021/01/07 08:19:35;;;;;;;48.05;29.30;;;;;;;3.28;89.93;100119.76;1776617;80;21326;-53
2021/01/07 08:22:03;;;;;;;52.50;30.00;;;;;;;3.30;90.11;100114.09;1776612;80;20979;-53
2021/01/07 08:24:32;;;;;;;60.92;37.30;;;;;;;3.34;90.10;100107.69;1776635;80;21042;-53
2021/01/07 08:27:19;;;;;;;51.58;29.75;;;;;;;3.37;90.08;100110.78;1776675;80;21654;-53
2021/01/07 08:29:53;;;;;;;57.43;33.50;;;;;;;3.40;89.99;100113.02;1776845;80;20978;-54
2021/01/07 08:32:23;;;;;;;46.83;29.35;;;;;;;3.41;89.90;100107.05;1775174;80;21413;-53
2021/01/07 08:34:50;;;;;;;54.20;33.30;;;;;;;3.45;89.92;100104.16;1776778;80;21064;-53
2021/01/07 08:37:22;;;;;;;57.83;36.55;;;;;;;3.45;89.72;100096.84;1776632;80;21177;-53
2021/01/07 08:39:50;;;;;;;53.10;32.13;;;;;;;3.45;89.78;100096.02;1776664;80;21033;-53
2021/01/07 08:42:17;;;;;;;57.40;34.98;;;;;;;3.45;89.72;100099.55;1776733;80;20918;-53
2021/01/07 08:44:45;;;;;;;51.33;31.33;;;;;;;3.45;89.76;100087.33;1776435;80;21327;-54
2021/01/07 08:47:21;;;;;;;51.58;32.45;;;;;;;3.49;89.80;100078.71;1752693;80;21038;-53
2021/01/07 08:50:10;;;;;;;46.98;30.05;;;;;;;3.49;89.70;100084.14;1776766;80;25512;-53
2021/01/07 08:52:56;;;;;;;48.13;31.20;;;;;;;3.50;89.76;100076.30;1776672;80;21026;-53
2021/01/07 08:55:49;;;;;;;48.55;29.55;;;;;;;3.50;89.94;100073.59;1776681;80;21178;-53
2021/01/07 08:58:25;;;;;;;41.75;24.45;;;;;;;3.52;89.89;100055.19;1776760;79;22327;-54
2021/01/07 09:00:54;;;;;;;40.40;22.95;;;;;;;3.53;89.91;100055.45;1776685;80;26234;-54
2021/01/07 09:03:22;;;;;;;47.08;26.87;;;;;;;3.55;90.04;100049.28;1776680;80;20989;-54
2021/01/07 09:05:49;;;;;;;40.60;23.77;;;;;;;3.57;90.04;100051.21;1776625;80;20966;-55
2021/01/07 09:08:17;;;;;;;39.58;22.95;;;;;;;3.62;90.12;100044.01;1752564;80;21033;-54
2021/01/07 09:10:46;;;;;;;37.58;21.33;;;;;;;3.64;90.06;100039.70;1728735;80;21199;-54
2021/01/07 09:13:20;;;;;;;36.42;22.42;;;;;;;3.67;90.10;100028.89;1776334;80;21037;-54
2021/01/07 09:15:47;;;;;;;32.65;19.98;;;;;;;3.72;90.17;100030.38;1776325;80;21600;-54
2021/01/07 09:18:19;;;;;;;35.78;22.45;;;;;;;3.73;89.85;100021.99;1776385;80;21691;-54
2021/01/07 09:20:47;;;;;;;38.92;20.80;;;;;;;3.67;89.89;100019.39;1776479;80;21014;-54
2021/01/07 09:23:16;;;;;;;47.95;26.68;;;;;;;3.66;90.11;100021.30;1776554;80;21831;-53
2021/01/07 09:25:44;;;;;;;39.75;25.17;;;;;;;3.66;90.10;100009.06;1776584;80;21053;-53
2021/01/07 09:28:12;;;;;;;48.60;25.00;;;;;;;3.71;90.19;99998.30;1776448;80;21014;-53
2021/01/07 09:30:39;;;;;;;56.00;29.32;;;;;;;3.76;90.27;99994.34;1776646;80;21047;-53
2021/01/07 09:33:07;;;;;;;69.22;33.78;;;;;;;3.83;90.30;99992.02;1776393;80;20994;-53
2021/01/07 09:35:35;;;;;;;71.97;34.27;;;;;;;3.86;90.19;99990.17;1776648;80;21368;-53
2021/01/07 09:38:02;;;;;;;58.42;30.70;;;;;;;3.87;90.11;99978.25;1776526;80;20978;-53
2021/01/07 09:40:30;;;;;;;50.35;27.17;;;;;;;3.89;90.03;99977.50;1776593;80;21017;-53
2021/01/07 09:42:57;;;;;;;54.23;29.55;;;;;;;3.90;89.91;99969.62;1776534;80;21015;-53
2021/01/07 09:45:25;;;;;;;45.73;25.00;;;;;;;3.89;90.01;99967.98;1776587;80;20990;-53
2021/01/07 09:47:52;;;;;;;49.58;27.02;;;;;;;3.90;89.99;99965.03;1776601;80;21143;-54
2021/01/07 09:50:22;;;;;;;47.33;26.73;;;;;;;3.92;89.99;99951.20;1776464;80;21044;-53
2021/01/07 09:52:49;;;;;;;45.63;27.52;;;;;;;3.92;89.96;99943.05;1776692;80;20974;-54
2021/01/07 09:55:17;;;;;;;50.25;28.32;;;;;;;3.95;90.18;99938.48;1776482;80;21013;-54
2021/01/07 09:57:49;;;;;;;51.73;26.68;;;;;;;4.00;90.18;99933.13;1776611;79;21584;-54
2021/01/07 10:00:18;;;;;;;48.50;25.88;;;;;;;4.03;90.13;99925.03;1776768;80;21407;-54
2021/01/07 10:02:46;;;;;;;44.40;23.87;;;;;;;4.04;90.14;99920.72;1776559;80;21537;-54
2021/01/07 10:05:14;;;;;;;45.88;26.57;;;;;;;4.07;90.09;99909.38;1776563;80;21029;-54
2021/01/07 10:07:41;;;;;;;37.85;23.67;;;;;;;4.06;89.85;99910.95;1776617;80;21034;-54
2021/01/07 10:10:12;;;;;;;39.80;21.95;;;;;;;4.04;89.91;99916.64;1776682;80;21071;-54
2021/01/07 10:12:39;;;;;;;38.92;22.10;;;;;;;4.03;89.91;99901.42;1776513;80;21864;-54
2021/01/07 10:15:08;;;;;;;33.85;20.00;;;;;;;4.01;89.99;99900.83;1776362;80;20978;-54
2021/01/07 10:17:36;;;;;;;37.30;21.95;;;;;;;3.97;89.85;99889.63;1776642;80;20950;-54
2021/01/07 10:20:07;;;;;;;45.28;24.65;;;;;;;3.96;89.98;99888.52;1776487;80;20982;-55
2021/01/07 10:22:37;;;;;;;41.30;26.17;;;;;;;3.95;90.11;99884.95;1776582;80;20982;-54
2021/01/07 10:25:06;;;;;;;40.17;24.87;;;;;;;3.97;90.21;99876.05;1776625;80;21408;-53
2021/01/07 10:27:34;;;;;;;42.62;26.35;;;;;;;4.01;90.19;99880.44;1776655;80;21057;-54
2021/01/07 10:30:02;;;;;;;43.73;26.62;;;;;;;3.98;90.08;99869.52;1776821;80;21014;-54
2021/01/07 10:32:29;;;;;;;45.48;27.67;;;;;;;4.01;90.20;99860.06;1776711;80;21595;-54
2021/01/07 10:34:56;;;;;;;47.43;29.85;;;;;;;4.04;90.18;99857.39;1776970;80;20986;-54
2021/01/07 10:37:24;;;;;;;43.83;26.23;;;;;;;4.06;90.18;99847.94;1752670;80;21290;-54
2021/01/07 10:39:53;;;;;;;39.60;24.87;;;;;;;4.05;90.05;99850.90;1776714;80;21045;-54
2021/01/07 10:42:24;;;;;;;43.33;27.32;;;;;;;4.02;90.11;99841.34;1776748;80;20990;-53
2021/01/07 10:44:52;;;;;;;38.15;25.08;;;;;;;4.07;90.24;99830.56;1778202;80;21641;-54
2021/01/07 10:47:20;;;;;;;41.50;25.00;;;;;;;4.15;90.20;99830.69;1783925;80;21037;-53
2021/01/07 10:49:47;;;;;;;39.88;25.40;;;;;;;4.15;90.11;99820.63;1783905;80;21336;-54
2021/01/07 10:52:45;;;;;;;33.15;23.55;;;;;;;4.17;90.10;99815.48;1783923;80;21021;-54
2021/01/07 10:55:22;;;;;;;38.45;23.52;;;;;;;4.21;90.04;99813.39;1783997;80;21029;-53
2021/01/07 10:58:16;;;;;;;32.50;21.37;;;;;;;4.24;90.16;99801.20;1784057;79;21006;-53
2021/01/07 11:01:31;;;;;;;34.35;21.12;;;;;;;4.29;90.15;99799.94;1783224;80;20953;-53
2021/01/07 11:04:24;;;;;;;23.50;16.32;;;;;;;4.31;90.00;99795.87;1783985;80;21640;-53
2021/01/07 11:07:30;;;;;;;24.37;15.53;;;;;;;4.33;89.94;99788.86;1783817;80;21025;-53
2021/01/07 11:10:03;;;;;;;21.42;15.28;;;;;;;4.31;89.81;99780.92;1783842;80;21415;-52
2021/01/07 11:12:42;;;;;;;18.60;13.68;;;;;;;4.36;89.90;99778.00;1783859;80;21040;-52
2021/01/07 11:15:16;;;;;;;18.62;12.80;;;;;;;4.37;89.81;99775.58;1783097;80;21026;-53
2021/01/07 11:17:52;;;;;;;15.15;10.48;;;;;;;4.35;89.72;99764.95;1784017;80;21362;-53
2021/01/07 11:20:19;;;;;;;;;;;;;;;4.36;89.73;99765.25;1786284;80;21005;-53
2021/01/07 11:22:47;;;;;;;18.57;12.93;;;;;;;4.36;89.76;99753.02;1783842;80;20644;-54
2021/01/07 11:25:14;;;;;;;16.02;12.23;;;;;;;4.37;89.70;99743.77;1783846;80;21057;-54
2021/01/07 11:27:41;;;;;;;17.20;12.28;;;;;;;4.40;89.81;99745.17;1783840;80;21576;-54
2021/01/07 11:30:12;;;;;;;16.90;11.40;;;;;;;4.43;89.85;99738.71;1755537;80;21554;-54
2021/01/07 11:32:40;;;;;;;19.80;12.82;;;;;;;4.44;89.63;99730.81;1783824;80;21041;-53